sim
Sign-in with your pilot id or email,
or register
Callsign
Passwort

Schedule Details

Flight Number: OEO9110
Departure: Krakow John Paul II International Airport (EPKK) at 14:55
Arrival: Munich Airport (EDDM) at 16:25

Weather Information
Getting current METAR information for EPKK 191100Z 06008KT 030V100 CAVOK 18/04 Q1024
Getting current METAR information for EDDM 191120Z 08004KT 030V120 CAVOK 19/11 Q1019 NOSIG

Schedule Frequency

Route Map